sensor_id;sensor_type;location;lat;lon;timestamp;P1;durP1;ratioP1;P2;durP2;ratioP2
11303;SDS011;5707;49.588;12.148;2022-12-18T00:02:12;15.57;;;13.98;;
11303;SDS011;5707;49.588;12.148;2022-12-18T00:04:38;15.85;;;14.25;;
11303;SDS011;5707;49.588;12.148;2022-12-18T00:07:03;16.77;;;15.07;;
11303;SDS011;5707;49.588;12.148;2022-12-18T00:09:29;18.92;;;15.48;;
11303;SDS011;5707;49.588;12.148;2022-12-18T00:11:55;16.48;;;14.60;;
11303;SDS011;5707;49.588;12.148;2022-12-18T00:14:20;17.48;;;15.65;;
11303;SDS011;5707;49.588;12.148;2022-12-18T00:16:46;15.32;;;13.75;;
11303;SDS011;5707;49.588;12.148;2022-12-18T00:19:12;14.73;;;13.32;;
11303;SDS011;5707;49.588;12.148;2022-12-18T00:21:38;16.10;;;14.55;;
11303;SDS011;5707;49.588;12.148;2022-12-18T00:24:04;15.20;;;13.32;;
11303;SDS011;5707;49.588;12.148;2022-12-18T00:26:31;16.50;;;14.63;;
11303;SDS011;5707;49.588;12.148;2022-12-18T00:28:59;16.90;;;14.40;;
11303;SDS011;5707;49.588;12.148;2022-12-18T00:31:26;15.82;;;14.18;;
11303;SDS011;5707;49.588;12.148;2022-12-18T00:33:55;16.27;;;14.13;;
11303;SDS011;5707;49.588;12.148;2022-12-18T00:36:23;17.08;;;15.20;;
11303;SDS011;5707;49.588;12.148;2022-12-18T00:38:51;20.98;;;14.35;;
11303;SDS011;5707;49.588;12.148;2022-12-18T00:41:18;22.88;;;15.85;;
11303;SDS011;5707;49.588;12.148;2022-12-18T00:44:03;25.38;;;16.50;;
11303;SDS011;5707;49.588;12.148;2022-12-18T00:46:30;22.02;;;15.68;;
11303;SDS011;5707;49.588;12.148;2022-12-18T00:48:56;20.45;;;15.27;;
11303;SDS011;5707;49.588;12.148;2022-12-18T00:51:22;20.20;;;15.45;;
11303;SDS011;5707;49.588;12.148;2022-12-18T00:53:48;20.17;;;14.63;;
11303;SDS011;5707;49.588;12.148;2022-12-18T00:56:14;19.63;;;15.50;;
11303;SDS011;5707;49.588;12.148;2022-12-18T00:58:40;23.27;;;18.70;;
11303;SDS011;5707;49.588;12.148;2022-12-18T01:01:06;20.27;;;14.65;;
11303;SDS011;5707;49.588;12.148;2022-12-18T01:03:31;23.90;;;16.02;;
11303;SDS011;5707;49.588;12.148;2022-12-18T01:05:57;21.60;;;15.77;;
11303;SDS011;5707;49.588;12.148;2022-12-18T01:08:23;22.30;;;16.75;;
11303;SDS011;5707;49.588;12.148;2022-12-18T01:10:48;28.13;;;17.85;;
11303;SDS011;5707;49.588;12.148;2022-12-18T01:13:14;30.23;;;18.02;;
11303;SDS011;5707;49.588;12.148;2022-12-18T01:15:40;28.90;;;19.10;;
11303;SDS011;5707;49.588;12.148;2022-12-18T01:18:06;24.80;;;16.83;;
11303;SDS011;5707;49.588;12.148;2022-12-18T01:20:32;24.75;;;18.58;;
11303;SDS011;5707;49.588;12.148;2022-12-18T01:22:57;34.45;;;19.38;;
11303;SDS011;5707;49.588;12.148;2022-12-18T01:25:23;34.65;;;20.10;;
11303;SDS011;5707;49.588;12.148;2022-12-18T01:27:49;35.08;;;20.35;;
11303;SDS011;5707;49.588;12.148;2022-12-18T01:30:14;34.20;;;19.77;;
11303;SDS011;5707;49.588;12.148;2022-12-18T01:32:40;29.50;;;20.02;;
11303;SDS011;5707;49.588;12.148;2022-12-18T01:35:06;36.25;;;21.33;;
11303;SDS011;5707;49.588;12.148;2022-12-18T01:37:32;35.60;;;21.05;;
11303;SDS011;5707;49.588;12.148;2022-12-18T01:39:57;32.83;;;20.27;;
11303;SDS011;5707;49.588;12.148;2022-12-18T01:42:23;39.30;;;21.40;;
11303;SDS011;5707;49.588;12.148;2022-12-18T01:47:44;38.78;;;22.60;;
11303;SDS011;5707;49.588;12.148;2022-12-18T01:53:17;29.02;;;17.92;;
11303;SDS011;5707;49.588;12.148;2022-12-18T01:55:46;41.50;;;17.92;;
11303;SDS011;5707;49.588;12.148;2022-12-18T01:58:14;30.70;;;18.20;;
11303;SDS011;5707;49.588;12.148;2022-12-18T02:00:40;33.78;;;19.05;;
11303;SDS011;5707;49.588;12.148;2022-12-18T02:03:06;27.25;;;16.58;;
11303;SDS011;5707;49.588;12.148;2022-12-18T02:05:44;25.02;;;17.00;;
11303;SDS011;5707;49.588;12.148;2022-12-18T02:08:26;26.48;;;17.38;;
11303;SDS011;5707;49.588;12.148;2022-12-18T02:11:06;32.13;;;17.90;;
11303;SDS011;5707;49.588;12.148;2022-12-18T02:28:13;13.90;;;12.40;;
11303;SDS011;5707;49.588;12.148;2022-12-18T02:30:40;13.00;;;11.50;;
11303;SDS011;5707;49.588;12.148;2022-12-18T02:33:08;12.48;;;11.23;;
11303;SDS011;5707;49.588;12.148;2022-12-18T02:35:36;12.50;;;11.20;;
11303;SDS011;5707;49.588;12.148;2022-12-18T02:38:03;12.43;;;11.15;;
11303;SDS011;5707;49.588;12.148;2022-12-18T02:40:30;13.00;;;10.95;;
11303;SDS011;5707;49.588;12.148;2022-12-18T02:43:02;12.05;;;10.93;;
11303;SDS011;5707;49.588;12.148;2022-12-18T02:45:34;15.18;;;12.18;;
11303;SDS011;5707;49.588;12.148;2022-12-18T02:48:00;17.50;;;12.70;;
11303;SDS011;5707;49.588;12.148;2022-12-18T02:50:38;15.70;;;13.02;;
11303;SDS011;5707;49.588;12.148;2022-12-18T02:53:17;14.20;;;12.35;;
11303;SDS011;5707;49.588;12.148;2022-12-18T03:03:54;14.98;;;12.68;;
11303;SDS011;5707;49.588;12.148;2022-12-18T03:08:58;14.77;;;12.18;;
11303;SDS011;5707;49.588;12.148;2022-12-18T03:11:28;14.30;;;12.73;;
11303;SDS011;5707;49.588;12.148;2022-12-18T03:14:16;15.00;;;12.15;;
11303;SDS011;5707;49.588;12.148;2022-12-18T03:16:45;13.90;;;12.15;;
11303;SDS011;5707;49.588;12.148;2022-12-18T03:19:18;12.27;;;11.07;;
11303;SDS011;5707;49.588;12.148;2022-12-18T03:21:47;12.77;;;11.55;;
11303;SDS011;5707;49.588;12.148;2022-12-18T03:24:16;13.32;;;11.93;;
11303;SDS011;5707;49.588;12.148;2022-12-18T03:26:44;13.30;;;12.00;;
11303;SDS011;5707;49.588;12.148;2022-12-18T03:29:17;13.52;;;12.13;;
11303;SDS011;5707;49.588;12.148;2022-12-18T03:31:49;14.32;;;12.25;;
11303;SDS011;5707;49.588;12.148;2022-12-18T03:34:25;12.00;;;10.85;;
11303;SDS011;5707;49.588;12.148;2022-12-18T03:36:54;11.73;;;10.57;;
11303;SDS011;5707;49.588;12.148;2022-12-18T03:39:20;13.60;;;11.70;;
11303;SDS011;5707;49.588;12.148;2022-12-18T03:41:55;11.70;;;10.55;;
11303;SDS011;5707;49.588;12.148;2022-12-18T03:44:57;12.20;;;11.00;;
11303;SDS011;5707;49.588;12.148;2022-12-18T03:47:39;11.80;;;10.57;;
11303;SDS011;5707;49.588;12.148;2022-12-18T03:52:58;11.70;;;10.35;;
11303;SDS011;5707;49.588;12.148;2022-12-18T03:55:32;11.68;;;10.55;;
11303;SDS011;5707;49.588;12.148;2022-12-18T03:57:59;11.95;;;10.73;;
11303;SDS011;5707;49.588;12.148;2022-12-18T04:00:28;11.00;;;9.77;;
11303;SDS011;5707;49.588;12.148;2022-12-18T04:02:55;11.45;;;10.35;;
11303;SDS011;5707;49.588;12.148;2022-12-18T04:05:24;11.95;;;10.85;;
11303;SDS011;5707;49.588;12.148;2022-12-18T04:07:52;11.13;;;10.20;;
11303;SDS011;5707;49.588;12.148;2022-12-18T04:10:19;12.43;;;10.98;;
11303;SDS011;5707;49.588;12.148;2022-12-18T04:12:45;12.43;;;11.13;;
11303;SDS011;5707;49.588;12.148;2022-12-18T04:15:11;12.88;;;11.48;;
11303;SDS011;5707;49.588;12.148;2022-12-18T04:17:38;12.75;;;11.40;;
11303;SDS011;5707;49.588;12.148;2022-12-18T04:20:06;12.48;;;11.20;;
11303;SDS011;5707;49.588;12.148;2022-12-18T04:22:32;12.93;;;11.73;;
11303;SDS011;5707;49.588;12.148;2022-12-18T04:24:57;14.35;;;11.73;;
11303;SDS011;5707;49.588;12.148;2022-12-18T04:27:23;13.20;;;11.90;;
11303;SDS011;5707;49.588;12.148;2022-12-18T04:29:48;13.55;;;10.80;;
11303;SDS011;5707;49.588;12.148;2022-12-18T04:32:14;12.70;;;11.40;;
11303;SDS011;5707;49.588;12.148;2022-12-18T04:34:39;11.73;;;10.63;;
11303;SDS011;5707;49.588;12.148;2022-12-18T04:37:05;16.55;;;13.25;;
11303;SDS011;5707;49.588;12.148;2022-12-18T04:39:30;16.70;;;13.50;;
11303;SDS011;5707;49.588;12.148;2022-12-18T04:41:56;12.98;;;10.93;;
11303;SDS011;5707;49.588;12.148;2022-12-18T04:44:24;11.50;;;10.23;;
11303;SDS011;5707;49.588;12.148;2022-12-18T04:46:50;12.90;;;11.57;;
11303;SDS011;5707;49.588;12.148;2022-12-18T04:49:16;13.30;;;11.60;;
11303;SDS011;5707;49.588;12.148;2022-12-18T04:51:41;13.52;;;12.13;;
11303;SDS011;5707;49.588;12.148;2022-12-18T04:54:07;16.33;;;13.32;;
11303;SDS011;5707;49.588;12.148;2022-12-18T04:56:32;13.65;;;11.13;;
11303;SDS011;5707;49.588;12.148;2022-12-18T04:58:58;15.63;;;12.60;;
11303;SDS011;5707;49.588;12.148;2022-12-18T05:01:23;15.60;;;13.93;;
11303;SDS011;5707;49.588;12.148;2022-12-18T05:03:50;17.50;;;13.13;;
11303;SDS011;5707;49.588;12.148;2022-12-18T05:06:16;14.77;;;11.95;;
11303;SDS011;5707;49.588;12.148;2022-12-18T05:08:42;16.30;;;12.75;;
11303;SDS011;5707;49.588;12.148;2022-12-18T05:11:09;13.15;;;11.68;;
11303;SDS011;5707;49.588;12.148;2022-12-18T05:13:40;12.27;;;10.80;;
11303;SDS011;5707;49.588;12.148;2022-12-18T05:16:07;15.77;;;12.20;;
11303;SDS011;5707;49.588;12.148;2022-12-18T05:18:33;14.27;;;11.18;;
11303;SDS011;5707;49.588;12.148;2022-12-18T05:20:59;12.52;;;11.32;;
11303;SDS011;5707;49.588;12.148;2022-12-18T05:23:26;12.07;;;10.80;;
11303;SDS011;5707;49.588;12.148;2022-12-18T05:25:56;11.48;;;10.27;;
11303;SDS011;5707;49.588;12.148;2022-12-18T05:28:24;12.30;;;11.05;;
11303;SDS011;5707;49.588;12.148;2022-12-18T05:30:51;11.13;;;10.00;;
11303;SDS011;5707;49.588;12.148;2022-12-18T05:33:21;10.93;;;9.82;;
11303;SDS011;5707;49.588;12.148;2022-12-18T05:35:55;10.40;;;9.40;;
11303;SDS011;5707;49.588;12.148;2022-12-18T05:38:22;9.73;;;8.73;;
11303;SDS011;5707;49.588;12.148;2022-12-18T05:40:50;10.48;;;9.35;;
11303;SDS011;5707;49.588;12.148;2022-12-18T05:43:16;8.82;;;8.00;;
11303;SDS011;5707;49.588;12.148;2022-12-18T05:45:44;8.93;;;8.13;;
11303;SDS011;5707;49.588;12.148;2022-12-18T05:48:09;9.05;;;8.15;;
11303;SDS011;5707;49.588;12.148;2022-12-18T05:50:39;8.73;;;7.93;;
11303;SDS011;5707;49.588;12.148;2022-12-18T05:53:06;8.70;;;7.93;;
11303;SDS011;5707;49.588;12.148;2022-12-18T05:55:35;10.00;;;9.00;;
11303;SDS011;5707;49.588;12.148;2022-12-18T05:58:03;9.95;;;9.05;;
11303;SDS011;5707;49.588;12.148;2022-12-18T06:00:30;10.32;;;9.30;;
11303;SDS011;5707;49.588;12.148;2022-12-18T06:02:56;10.50;;;8.57;;
11303;SDS011;5707;49.588;12.148;2022-12-18T06:05:22;9.20;;;8.05;;
11303;SDS011;5707;49.588;12.148;2022-12-18T06:07:48;9.52;;;8.63;;
11303;SDS011;5707;49.588;12.148;2022-12-18T06:10:13;9.75;;;8.80;;
11303;SDS011;5707;49.588;12.148;2022-12-18T06:12:39;9.80;;;8.90;;
11303;SDS011;5707;49.588;12.148;2022-12-18T06:15:05;9.10;;;8.30;;
11303;SDS011;5707;49.588;12.148;2022-12-18T06:17:31;8.27;;;7.47;;
11303;SDS011;5707;49.588;12.148;2022-12-18T06:19:57;8.95;;;8.13;;
11303;SDS011;5707;49.588;12.148;2022-12-18T06:22:24;7.97;;;7.28;;
11303;SDS011;5707;49.588;12.148;2022-12-18T06:24:50;8.60;;;7.80;;
11303;SDS011;5707;49.588;12.148;2022-12-18T06:27:16;8.55;;;7.75;;
11303;SDS011;5707;49.588;12.148;2022-12-18T06:29:42;8.75;;;8.02;;
11303;SDS011;5707;49.588;12.148;2022-12-18T06:32:07;9.68;;;8.55;;
11303;SDS011;5707;49.588;12.148;2022-12-18T06:34:33;8.50;;;7.80;;
11303;SDS011;5707;49.588;12.148;2022-12-18T06:36:59;7.90;;;7.25;;
11303;SDS011;5707;49.588;12.148;2022-12-18T06:39:27;10.98;;;7.47;;
11303;SDS011;5707;49.588;12.148;2022-12-18T06:41:52;8.05;;;7.22;;
11303;SDS011;5707;49.588;12.148;2022-12-18T06:44:18;7.93;;;7.22;;
11303;SDS011;5707;49.588;12.148;2022-12-18T06:46:44;8.38;;;7.55;;
11303;SDS011;5707;49.588;12.148;2022-12-18T06:49:10;8.60;;;7.88;;
11303;SDS011;5707;49.588;12.148;2022-12-18T06:51:36;8.85;;;8.05;;
11303;SDS011;5707;49.588;12.148;2022-12-18T06:54:01;8.05;;;7.28;;
11303;SDS011;5707;49.588;12.148;2022-12-18T06:56:27;8.57;;;7.88;;
11303;SDS011;5707;49.588;12.148;2022-12-18T06:58:53;10.18;;;9.05;;
11303;SDS011;5707;49.588;12.148;2022-12-18T07:01:18;10.82;;;9.73;;
11303;SDS011;5707;49.588;12.148;2022-12-18T07:03:44;18.70;;;14.93;;
11303;SDS011;5707;49.588;12.148;2022-12-18T07:06:17;7.90;;;7.20;;
11303;SDS011;5707;49.588;12.148;2022-12-18T07:08:44;14.07;;;9.07;;
11303;SDS011;5707;49.588;12.148;2022-12-18T07:11:10;11.85;;;10.73;;
11303;SDS011;5707;49.588;12.148;2022-12-18T07:13:36;8.07;;;7.38;;
11303;SDS011;5707;49.588;12.148;2022-12-18T07:18:32;8.63;;;7.35;;
11303;SDS011;5707;49.588;12.148;2022-12-18T07:20:57;7.35;;;6.65;;
11303;SDS011;5707;49.588;12.148;2022-12-18T07:23:23;9.15;;;8.27;;
11303;SDS011;5707;49.588;12.148;2022-12-18T07:25:49;8.88;;;8.07;;
11303;SDS011;5707;49.588;12.148;2022-12-18T07:28:15;8.88;;;8.15;;
11303;SDS011;5707;49.588;12.148;2022-12-18T07:30:40;9.15;;;8.25;;
11303;SDS011;5707;49.588;12.148;2022-12-18T07:33:06;8.88;;;8.05;;
11303;SDS011;5707;49.588;12.148;2022-12-18T07:35:32;7.35;;;6.75;;
11303;SDS011;5707;49.588;12.148;2022-12-18T07:38:01;9.85;;;8.85;;
11303;SDS011;5707;49.588;12.148;2022-12-18T07:40:27;14.50;;;13.18;;
11303;SDS011;5707;49.588;12.148;2022-12-18T07:42:52;10.48;;;9.55;;
11303;SDS011;5707;49.588;12.148;2022-12-18T07:45:18;12.25;;;11.25;;
11303;SDS011;5707;49.588;12.148;2022-12-18T07:47:43;14.15;;;12.95;;
11303;SDS011;5707;49.588;12.148;2022-12-18T07:50:09;12.45;;;11.43;;
11303;SDS011;5707;49.588;12.148;2022-12-18T07:52:34;8.52;;;7.75;;
11303;SDS011;5707;49.588;12.148;2022-12-18T07:55:00;10.00;;;9.05;;
11303;SDS011;5707;49.588;12.148;2022-12-18T07:57:26;9.80;;;9.10;;
11303;SDS011;5707;49.588;12.148;2022-12-18T07:59:51;9.27;;;8.48;;
11303;SDS011;5707;49.588;12.148;2022-12-18T08:02:17;11.68;;;10.30;;
11303;SDS011;5707;49.588;12.148;2022-12-18T08:04:42;10.63;;;9.60;;
11303;SDS011;5707;49.588;12.148;2022-12-18T08:07:08;9.43;;;8.63;;
11303;SDS011;5707;49.588;12.148;2022-12-18T08:09:34;11.77;;;10.68;;
11303;SDS011;5707;49.588;12.148;2022-12-18T08:11:59;9.75;;;8.85;;
11303;SDS011;5707;49.588;12.148;2022-12-18T08:14:25;10.35;;;8.85;;
11303;SDS011;5707;49.588;12.148;2022-12-18T08:16:50;10.50;;;9.50;;
11303;SDS011;5707;49.588;12.148;2022-12-18T08:19:16;11.15;;;8.95;;
11303;SDS011;5707;49.588;12.148;2022-12-18T08:21:42;9.27;;;8.40;;
11303;SDS011;5707;49.588;12.148;2022-12-18T08:24:08;9.95;;;8.95;;
11303;SDS011;5707;49.588;12.148;2022-12-18T08:26:34;9.25;;;8.30;;
11303;SDS011;5707;49.588;12.148;2022-12-18T08:28:59;10.90;;;9.75;;
11303;SDS011;5707;49.588;12.148;2022-12-18T08:31:26;10.05;;;8.82;;
11303;SDS011;5707;49.588;12.148;2022-12-18T08:33:52;13.68;;;12.25;;
11303;SDS011;5707;49.588;12.148;2022-12-18T08:36:19;10.43;;;9.40;;
11303;SDS011;5707;49.588;12.148;2022-12-18T08:38:45;10.40;;;9.30;;
11303;SDS011;5707;49.588;12.148;2022-12-18T08:41:13;9.90;;;9.00;;
11303;SDS011;5707;49.588;12.148;2022-12-18T08:43:39;9.82;;;9.02;;
11303;SDS011;5707;49.588;12.148;2022-12-18T08:46:25;10.23;;;9.15;;
11303;SDS011;5707;49.588;12.148;2022-12-18T08:48:52;11.10;;;8.70;;
11303;SDS011;5707;49.588;12.148;2022-12-18T08:51:19;9.30;;;8.40;;
11303;SDS011;5707;49.588;12.148;2022-12-18T08:53:45;10.43;;;9.43;;
11303;SDS011;5707;49.588;12.148;2022-12-18T08:56:11;12.90;;;10.20;;
11303;SDS011;5707;49.588;12.148;2022-12-18T08:58:37;12.40;;;10.77;;
11303;SDS011;5707;49.588;12.148;2022-12-18T09:01:03;12.45;;;11.00;;
11303;SDS011;5707;49.588;12.148;2022-12-18T09:03:30;13.45;;;10.70;;
11303;SDS011;5707;49.588;12.148;2022-12-18T09:05:55;11.82;;;10.60;;
11303;SDS011;5707;49.588;12.148;2022-12-18T09:08:21;11.13;;;9.85;;
11303;SDS011;5707;49.588;12.148;2022-12-18T09:10:47;12.43;;;10.50;;
11303;SDS011;5707;49.588;12.148;2022-12-18T09:13:14;13.55;;;12.18;;
11303;SDS011;5707;49.588;12.148;2022-12-18T09:15:41;15.45;;;12.00;;
11303;SDS011;5707;49.588;12.148;2022-12-18T09:18:10;13.20;;;11.88;;
11303;SDS011;5707;49.588;12.148;2022-12-18T09:20:36;13.90;;;12.45;;
11303;SDS011;5707;49.588;12.148;2022-12-18T09:23:02;28.27;;;24.95;;
11303;SDS011;5707;49.588;12.148;2022-12-18T09:25:28;17.38;;;15.68;;
11303;SDS011;5707;49.588;12.148;2022-12-18T09:28:02;21.90;;;18.42;;
11303;SDS011;5707;49.588;12.148;2022-12-18T09:30:28;17.85;;;14.25;;
11303;SDS011;5707;49.588;12.148;2022-12-18T09:32:54;14.85;;;12.90;;
11303;SDS011;5707;49.588;12.148;2022-12-18T09:35:20;14.90;;;13.35;;
11303;SDS011;5707;49.588;12.148;2022-12-18T09:37:45;15.55;;;12.18;;
11303;SDS011;5707;49.588;12.148;2022-12-18T09:40:14;13.75;;;12.48;;
11303;SDS011;5707;49.588;12.148;2022-12-18T09:42:43;14.57;;;12.98;;
11303;SDS011;5707;49.588;12.148;2022-12-18T09:45:15;14.70;;;12.98;;
11303;SDS011;5707;49.588;12.148;2022-12-18T09:47:42;17.50;;;13.43;;
11303;SDS011;5707;49.588;12.148;2022-12-18T09:52:45;15.10;;;13.57;;
11303;SDS011;5707;49.588;12.148;2022-12-18T09:55:29;18.88;;;13.10;;
11303;SDS011;5707;49.588;12.148;2022-12-18T10:00:53;16.88;;;13.43;;
11303;SDS011;5707;49.588;12.148;2022-12-18T10:03:19;20.70;;;13.05;;
11303;SDS011;5707;49.588;12.148;2022-12-18T10:11:01;17.52;;;12.27;;
11303;SDS011;5707;49.588;12.148;2022-12-18T10:13:46;17.50;;;13.32;;
11303;SDS011;5707;49.588;12.148;2022-12-18T10:16:27;15.73;;;13.52;;
11303;SDS011;5707;49.588;12.148;2022-12-18T10:24:24;23.63;;;14.80;;
11303;SDS011;5707;49.588;12.148;2022-12-18T10:27:25;23.42;;;15.63;;
11303;SDS011;5707;49.588;12.148;2022-12-18T10:29:52;14.52;;;13.13;;
11303;SDS011;5707;49.588;12.148;2022-12-18T10:32:22;15.10;;;13.00;;
11303;SDS011;5707;49.588;12.148;2022-12-18T10:34:51;16.98;;;13.27;;
11303;SDS011;5707;49.588;12.148;2022-12-18T10:37:19;16.10;;;13.65;;
11303;SDS011;5707;49.588;12.148;2022-12-18T10:40:04;14.18;;;12.73;;
11303;SDS011;5707;49.588;12.148;2022-12-18T10:42:34;15.63;;;13.20;;
11303;SDS011;5707;49.588;12.148;2022-12-18T10:47:43;16.10;;;13.25;;
11303;SDS011;5707;49.588;12.148;2022-12-18T10:50:24;16.80;;;12.48;;
11303;SDS011;5707;49.588;12.148;2022-12-18T10:53:00;20.50;;;13.90;;
11303;SDS011;5707;49.588;12.148;2022-12-18T10:55:35;21.48;;;12.73;;
11303;SDS011;5707;49.588;12.148;2022-12-18T11:01:08;30.83;;;15.23;;
11303;SDS011;5707;49.588;12.148;2022-12-18T11:03:44;16.98;;;11.82;;
11303;SDS011;5707;49.588;12.148;2022-12-18T11:08:42;18.00;;;12.55;;
11303;SDS011;5707;49.588;12.148;2022-12-18T11:11:19;14.93;;;12.57;;
11303;SDS011;5707;49.588;12.148;2022-12-18T11:14:01;17.13;;;12.77;;
11303;SDS011;5707;49.588;12.148;2022-12-18T11:16:27;13.68;;;12.13;;
11303;SDS011;5707;49.588;12.148;2022-12-18T11:18:55;13.63;;;12.32;;
11303;SDS011;5707;49.588;12.148;2022-12-18T11:21:39;13.27;;;11.98;;
11303;SDS011;5707;49.588;12.148;2022-12-18T11:24:07;16.50;;;12.20;;
11303;SDS011;5707;49.588;12.148;2022-12-18T11:27:01;12.82;;;11.40;;
11303;SDS011;5707;49.588;12.148;2022-12-18T11:29:35;14.40;;;11.43;;
11303;SDS011;5707;49.588;12.148;2022-12-18T11:32:22;13.18;;;10.82;;
11303;SDS011;5707;49.588;12.148;2022-12-18T11:37:41;14.68;;;12.43;;
11303;SDS011;5707;49.588;12.148;2022-12-18T11:40:15;15.80;;;12.20;;
11303;SDS011;5707;49.588;12.148;2022-12-18T11:42:50;13.82;;;11.50;;
11303;SDS011;5707;49.588;12.148;2022-12-18T11:45:27;15.52;;;11.95;;
11303;SDS011;5707;49.588;12.148;2022-12-18T11:48:05;13.95;;;11.43;;
11303;SDS011;5707;49.588;12.148;2022-12-18T11:53:24;12.50;;;10.63;;
11303;SDS011;5707;49.588;12.148;2022-12-18T11:58:46;13.35;;;11.50;;
11303;SDS011;5707;49.588;12.148;2022-12-18T12:04:17;13.82;;;11.48;;
11303;SDS011;5707;49.588;12.148;2022-12-18T12:09:45;15.35;;;13.52;;
11303;SDS011;5707;49.588;12.148;2022-12-18T12:15:17;14.98;;;13.55;;
11303;SDS011;5707;49.588;12.148;2022-12-18T12:32:07;18.73;;;14.40;;
11303;SDS011;5707;49.588;12.148;2022-12-18T12:37:11;18.63;;;16.63;;
11303;SDS011;5707;49.588;12.148;2022-12-18T12:39:39;26.85;;;17.15;;
11303;SDS011;5707;49.588;12.148;2022-12-18T12:45:13;22.50;;;16.25;;
11303;SDS011;5707;49.588;12.148;2022-12-18T12:47:46;16.10;;;13.30;;
11303;SDS011;5707;49.588;12.148;2022-12-18T12:50:15;16.80;;;12.30;;
11303;SDS011;5707;49.588;12.148;2022-12-18T12:52:47;16.30;;;11.27;;
11303;SDS011;5707;49.588;12.148;2022-12-18T12:55:25;19.38;;;12.35;;
11303;SDS011;5707;49.588;12.148;2022-12-18T13:00:19;18.38;;;14.93;;
11303;SDS011;5707;49.588;12.148;2022-12-18T13:02:56;23.02;;;16.58;;
11303;SDS011;5707;49.588;12.148;2022-12-18T13:10:46;10.10;;;9.07;;
11303;SDS011;5707;49.588;12.148;2022-12-18T13:13:12;31.08;;;9.63;;
11303;SDS011;5707;49.588;12.148;2022-12-18T13:15:43;8.57;;;7.68;;
11303;SDS011;5707;49.588;12.148;2022-12-18T13:21:14;7.00;;;6.35;;
11303;SDS011;5707;49.588;12.148;2022-12-18T13:23:43;7.95;;;7.07;;
11303;SDS011;5707;49.588;12.148;2022-12-18T13:31:13;15.98;;;7.43;;
11303;SDS011;5707;49.588;12.148;2022-12-18T13:33:57;7.10;;;6.38;;
11303;SDS011;5707;49.588;12.148;2022-12-18T13:36:41;11.25;;;6.40;;
11303;SDS011;5707;49.588;12.148;2022-12-18T13:39:10;7.55;;;5.95;;
11303;SDS011;5707;49.588;12.148;2022-12-18T13:41:43;5.68;;;5.05;;
11303;SDS011;5707;49.588;12.148;2022-12-18T13:46:59;8.93;;;8.07;;
11303;SDS011;5707;49.588;12.148;2022-12-18T13:49:35;7.53;;;6.55;;
11303;SDS011;5707;49.588;12.148;2022-12-18T13:52:02;7.88;;;6.30;;
11303;SDS011;5707;49.588;12.148;2022-12-18T13:54:39;7.22;;;6.63;;
11303;SDS011;5707;49.588;12.148;2022-12-18T13:57:26;6.40;;;5.75;;
11303;SDS011;5707;49.588;12.148;2022-12-18T13:59:57;6.80;;;6.18;;
11303;SDS011;5707;49.588;12.148;2022-12-18T14:02:25;7.03;;;6.32;;
11303;SDS011;5707;49.588;12.148;2022-12-18T14:04:53;7.95;;;7.15;;
11303;SDS011;5707;49.588;12.148;2022-12-18T14:07:21;7.50;;;6.80;;
11303;SDS011;5707;49.588;12.148;2022-12-18T14:09:52;8.63;;;6.65;;
11303;SDS011;5707;49.588;12.148;2022-12-18T14:12:25;7.13;;;6.47;;
11303;SDS011;5707;49.588;12.148;2022-12-18T14:17:50;7.13;;;6.45;;
11303;SDS011;5707;49.588;12.148;2022-12-18T14:20:20;7.00;;;6.40;;
11303;SDS011;5707;49.588;12.148;2022-12-18T14:22:47;8.23;;;7.30;;
11303;SDS011;5707;49.588;12.148;2022-12-18T14:25:21;10.13;;;8.23;;
11303;SDS011;5707;49.588;12.148;2022-12-18T14:27:53;7.25;;;6.57;;
11303;SDS011;5707;49.588;12.148;2022-12-18T14:30:48;6.97;;;6.28;;
11303;SDS011;5707;49.588;12.148;2022-12-18T14:33:15;8.00;;;7.20;;
11303;SDS011;5707;49.588;12.148;2022-12-18T14:35:59;8.65;;;6.32;;
11303;SDS011;5707;49.588;12.148;2022-12-18T14:38:34;7.43;;;6.63;;
11303;SDS011;5707;49.588;12.148;2022-12-18T14:43:38;7.70;;;6.93;;
11303;SDS011;5707;49.588;12.148;2022-12-18T14:46:06;8.52;;;7.72;;
11303;SDS011;5707;49.588;12.148;2022-12-18T14:48:55;8.65;;;7.85;;
11303;SDS011;5707;49.588;12.148;2022-12-18T14:51:22;9.57;;;7.40;;
11303;SDS011;5707;49.588;12.148;2022-12-18T14:57:05;8.00;;;7.30;;
11303;SDS011;5707;49.588;12.148;2022-12-18T14:59:37;9.27;;;8.23;;
11303;SDS011;5707;49.588;12.148;2022-12-18T15:04:48;9.25;;;8.45;;
11303;SDS011;5707;49.588;12.148;2022-12-18T15:07:26;9.35;;;8.43;;
11303;SDS011;5707;49.588;12.148;2022-12-18T15:12:36;8.80;;;7.97;;
11303;SDS011;5707;49.588;12.148;2022-12-18T15:15:05;9.30;;;8.40;;
11303;SDS011;5707;49.588;12.148;2022-12-18T15:17:56;9.55;;;8.65;;
11303;SDS011;5707;49.588;12.148;2022-12-18T15:20:25;10.07;;;9.23;;
11303;SDS011;5707;49.588;12.148;2022-12-18T15:22:51;9.80;;;9.00;;
11303;SDS011;5707;49.588;12.148;2022-12-18T15:25:35;11.95;;;8.95;;
11303;SDS011;5707;49.588;12.148;2022-12-18T15:28:03;12.30;;;9.98;;
11303;SDS011;5707;49.588;12.148;2022-12-18T15:30:37;10.23;;;9.13;;
11303;SDS011;5707;49.588;12.148;2022-12-18T15:33:16;10.30;;;9.40;;
11303;SDS011;5707;49.588;12.148;2022-12-18T15:35:55;12.13;;;10.25;;
11303;SDS011;5707;49.588;12.148;2022-12-18T15:38:25;11.40;;;10.15;;
11303;SDS011;5707;49.588;12.148;2022-12-18T15:40:52;12.25;;;10.27;;
11303;SDS011;5707;49.588;12.148;2022-12-18T15:43:19;12.27;;;10.25;;
11303;SDS011;5707;49.588;12.148;2022-12-18T15:46:13;10.65;;;9.63;;
11303;SDS011;5707;49.588;12.148;2022-12-18T15:48:44;12.45;;;10.68;;
11303;SDS011;5707;49.588;12.148;2022-12-18T15:51:15;13.13;;;11.82;;
11303;SDS011;5707;49.588;12.148;2022-12-18T15:54:02;13.40;;;11.38;;
11303;SDS011;5707;49.588;12.148;2022-12-18T15:56:30;13.77;;;11.45;;
11303;SDS011;5707;49.588;12.148;2022-12-18T15:59:16;12.23;;;10.93;;
11303;SDS011;5707;49.588;12.148;2022-12-18T16:01:44;12.32;;;11.13;;
11303;SDS011;5707;49.588;12.148;2022-12-18T16:04:12;14.02;;;12.38;;
11303;SDS011;5707;49.588;12.148;2022-12-18T16:06:39;13.45;;;12.10;;
11303;SDS011;5707;49.588;12.148;2022-12-18T16:09:05;12.30;;;11.02;;
11303;SDS011;5707;49.588;12.148;2022-12-18T16:11:32;15.00;;;12.82;;
11303;SDS011;5707;49.588;12.148;2022-12-18T16:14:25;13.07;;;11.77;;
11303;SDS011;5707;49.588;12.148;2022-12-18T16:16:53;12.90;;;11.70;;
11303;SDS011;5707;49.588;12.148;2022-12-18T16:19:20;13.43;;;12.02;;
11303;SDS011;5707;49.588;12.148;2022-12-18T16:21:46;14.98;;;13.05;;
11303;SDS011;5707;49.588;12.148;2022-12-18T16:24:20;16.42;;;13.30;;
11303;SDS011;5707;49.588;12.148;2022-12-18T16:26:47;14.20;;;12.70;;
11303;SDS011;5707;49.588;12.148;2022-12-18T16:29:13;15.20;;;13.52;;
11303;SDS011;5707;49.588;12.148;2022-12-18T16:31:39;14.23;;;12.77;;
11303;SDS011;5707;49.588;12.148;2022-12-18T16:34:21;14.60;;;13.18;;
11303;SDS011;5707;49.588;12.148;2022-12-18T16:36:50;14.65;;;12.52;;
11303;SDS011;5707;49.588;12.148;2022-12-18T16:39:16;17.02;;;13.98;;
11303;SDS011;5707;49.588;12.148;2022-12-18T16:41:42;14.90;;;13.00;;
11303;SDS011;5707;49.588;12.148;2022-12-18T16:44:08;15.45;;;13.85;;
11303;SDS011;5707;49.588;12.148;2022-12-18T16:46:35;14.98;;;13.32;;
11303;SDS011;5707;49.588;12.148;2022-12-18T16:49:01;16.70;;;14.00;;
11303;SDS011;5707;49.588;12.148;2022-12-18T16:51:27;16.98;;;13.85;;
11303;SDS011;5707;49.588;12.148;2022-12-18T16:53:53;16.02;;;14.27;;